createdAt,value
2018-09-10T00:01:36.942Z,64.57
2018-09-10T00:04:03.880Z,65.10
2018-09-10T00:06:30.909Z,65.25
2018-09-10T00:08:57.852Z,64.47
2018-09-10T00:11:24.809Z,64.67
2018-09-10T00:13:51.704Z,65.35
2018-09-10T00:16:18.616Z,65.40
2018-09-10T00:18:45.597Z,64.98
2018-09-10T00:21:12.613Z,65.30
2018-09-10T00:23:39.973Z,64.77
2018-09-10T00:26:06.957Z,65.36
2018-09-10T00:28:33.925Z,65.39
2018-09-10T00:31:01.232Z,64.77
2018-09-10T00:33:28.210Z,64.63
2018-09-10T00:35:55.230Z,64.95
2018-09-10T00:38:22.226Z,64.99
2018-09-10T00:40:49.205Z,64.74
2018-09-10T00:43:16.170Z,65.07
2018-09-10T00:45:43.149Z,64.57
2018-09-10T00:48:10.149Z,65.36
2018-09-10T00:50:37.204Z,65.07
2018-09-10T00:53:04.145Z,65.23
2018-09-10T00:55:31.113Z,65.51
2018-09-10T00:57:58.021Z,65.35
2018-09-10T01:00:25.018Z,65.59
2018-09-10T01:02:51.978Z,65.37
2018-09-10T01:05:18.896Z,65.40
2018-09-10T01:07:45.874Z,64.87
2018-09-10T01:10:12.817Z,64.74
2018-09-10T01:12:39.787Z,65.41
2018-09-10T01:15:06.735Z,65.33
2018-09-10T01:17:33.716Z,64.54
2018-09-10T01:20:00.608Z,65.32
2018-09-10T01:22:27.529Z,65.08
2018-09-10T01:24:54.533Z,65.19
2018-09-10T01:27:21.456Z,64.67
2018-09-10T01:29:48.410Z,65.56
2018-09-10T01:32:15.381Z,64.73
2018-09-10T01:34:47.500Z,65.42
2018-09-10T01:37:14.424Z,64.68
2018-09-10T01:39:41.332Z,65.04
2018-09-10T01:42:08.253Z,64.98
2018-09-10T01:44:35.160Z,65.45
2018-09-10T01:47:02.134Z,65.34
2018-09-10T01:49:29.104Z,64.94
2018-09-10T01:51:56.020Z,65.48
2018-09-10T01:54:22.961Z,64.99
2018-09-10T01:56:49.875Z,64.63
2018-09-10T01:59:16.796Z,64.77
2018-09-10T02:01:43.681Z,65.34
2018-09-10T02:04:10.610Z,65.49
2018-09-10T02:06:37.511Z,65.20
2018-09-10T02:09:05.240Z,64.86
2018-09-10T02:11:32.152Z,65.33
2018-09-10T02:13:59.043Z,64.71
2018-09-10T02:16:25.971Z,65.00
2018-09-10T02:18:52.907Z,65.04
2018-09-10T02:21:19.840Z,65.52
2018-09-10T02:23:46.745Z,65.50
2018-09-10T02:26:13.616Z,64.98
2018-09-10T02:28:40.532Z,64.86
2018-09-10T02:31:07.465Z,64.87
2018-09-10T02:33:34.389Z,65.54
2018-09-10T02:36:01.379Z,65.31
2018-09-10T02:38:28.367Z,65.37
2018-09-10T02:40:55.263Z,65.01
2018-09-10T02:43:22.164Z,65.36
2018-09-10T02:45:49.122Z,65.41
2018-09-10T02:48:16.066Z,65.67
2018-09-10T02:50:43.054Z,65.64
2018-09-10T02:53:09.999Z,65.33
2018-09-10T02:55:36.942Z,65.28
2018-09-10T02:58:03.817Z,65.41
2018-09-10T03:00:30.746Z,65.38
2018-09-10T03:02:57.632Z,65.60
2018-09-10T03:05:24.556Z,64.96
2018-09-10T03:07:51.485Z,65.51
2018-09-10T03:10:18.480Z,65.04
2018-09-10T03:12:45.444Z,64.97
2018-09-10T03:15:12.348Z,65.68
2018-09-10T03:17:39.276Z,65.66
2018-09-10T03:20:06.216Z,64.98
2018-09-10T03:22:33.129Z,65.28
2018-09-10T03:25:00.030Z,65.48
2018-09-10T03:27:26.982Z,65.73
2018-09-10T03:29:53.957Z,65.28
2018-09-10T03:32:20.892Z,65.17
2018-09-10T03:34:47.849Z,65.64
2018-09-10T03:37:14.805Z,65.33
2018-09-10T03:39:41.740Z,65.60
2018-09-10T03:42:08.806Z,65.21
2018-09-10T03:44:36.004Z,64.94
2018-09-10T03:47:02.909Z,65.58
2018-09-10T03:49:30.212Z,65.66
2018-09-10T03:51:57.130Z,65.53
2018-09-10T03:54:24.042Z,64.85
2018-09-10T03:56:51.056Z,65.12
2018-09-10T03:59:18.016Z,65.75
2018-09-10T04:01:44.936Z,65.27
2018-09-10T04:04:11.863Z,65.58
2018-09-10T04:06:38.792Z,65.43
2018-09-10T04:09:05.717Z,65.41
2018-09-10T04:11:32.636Z,64.93
2018-09-10T04:13:59.523Z,64.80
2018-09-10T04:16:26.408Z,65.52
2018-09-10T04:18:53.371Z,65.73
2018-09-10T04:21:20.346Z,65.81
2018-09-10T04:23:47.240Z,65.37
2018-09-10T04:26:14.264Z,65.15
2018-09-10T04:28:41.177Z,65.68
2018-09-10T04:31:08.087Z,65.76
2018-09-10T04:33:35.085Z,65.25
2018-09-10T04:36:02.049Z,65.32
2018-09-10T04:38:29.049Z,65.07
2018-09-10T04:40:55.946Z,65.66
2018-09-10T04:43:22.862Z,65.13
2018-09-10T04:45:49.820Z,65.37
2018-09-10T04:48:16.697Z,65.02
2018-09-10T04:50:43.601Z,65.11
2018-09-10T04:53:10.504Z,64.99
2018-09-10T04:55:37.599Z,64.29
2018-09-10T04:58:04.852Z,64.55
2018-09-10T05:00:31.797Z,64.35
2018-09-10T05:02:58.747Z,63.86
2018-09-10T05:05:25.648Z,64.15
2018-09-10T05:07:53.189Z,64.11
2018-09-10T05:10:20.166Z,63.52
2018-09-10T05:12:47.054Z,63.34
2018-09-10T05:15:13.957Z,63.89
2018-09-10T05:17:40.877Z,63.64
2018-09-10T05:20:07.784Z,63.26
2018-09-10T05:22:34.708Z,62.59
2018-09-10T05:25:01.559Z,63.07
2018-09-10T05:27:28.496Z,63.52
2018-09-10T05:29:55.423Z,62.96
2018-09-10T05:32:22.388Z,63.64
2018-09-10T05:34:49.347Z,60.68
2018-09-10T05:37:16.286Z,56.68
2018-09-10T05:39:43.205Z,56.71
2018-09-10T05:42:10.325Z,55.85
2018-09-10T05:44:37.229Z,65.49
2018-09-10T05:47:04.243Z,64.66
2018-09-10T05:49:31.157Z,67.09
2018-09-10T05:51:58.067Z,68.65
2018-09-10T05:54:25.012Z,69.71
2018-09-10T05:56:51.950Z,69.36
2018-09-10T05:59:18.937Z,63.67
2018-09-10T06:01:45.976Z,61.07
2018-09-10T06:04:12.864Z,59.86
2018-09-10T06:06:39.752Z,57.77
2018-09-10T06:09:06.684Z,58.51
2018-09-10T06:11:33.580Z,57.67
2018-09-10T06:14:00.476Z,58.18
2018-09-10T06:16:27.389Z,58.09
2018-09-10T06:18:54.346Z,58.05
2018-09-10T06:21:21.277Z,58.14
2018-09-10T06:23:48.175Z,58.22
2018-09-10T06:26:15.154Z,58.35
2018-09-10T06:28:42.168Z,59.05
2018-09-10T06:31:09.189Z,59.43
2018-09-10T06:33:36.366Z,58.78
2018-09-10T06:36:03.277Z,59.10
2018-09-10T06:38:30.265Z,59.17
2018-09-10T06:40:57.208Z,58.65
2018-09-10T06:43:24.181Z,59.06
2018-09-10T06:45:51.239Z,59.83
2018-09-10T06:48:18.169Z,60.03
2018-09-10T06:50:45.124Z,59.50
2018-09-10T06:53:12.026Z,59.83
2018-09-10T06:55:38.956Z,59.63
2018-09-10T06:58:05.945Z,59.47
2018-09-10T07:00:32.924Z,60.47
2018-09-10T07:02:59.822Z,60.33
2018-09-10T07:05:26.766Z,59.73
2018-09-10T07:07:53.750Z,59.67
2018-09-10T07:10:20.688Z,60.13
2018-09-10T07:12:47.602Z,60.56
2018-09-10T07:15:14.573Z,60.61
2018-09-10T07:17:41.481Z,60.92
2018-09-10T07:20:08.487Z,60.96
2018-09-10T07:22:35.732Z,60.39
2018-09-10T07:25:02.697Z,60.43
2018-09-10T07:27:29.801Z,60.76
2018-09-10T07:29:56.809Z,61.11
2018-09-10T07:32:23.807Z,60.42
2018-09-10T07:34:50.833Z,61.09
2018-09-10T07:37:17.895Z,60.58
2018-09-10T07:39:45.339Z,60.50
2018-09-10T07:42:12.473Z,60.81
2018-09-10T07:44:39.556Z,61.31
2018-09-10T07:47:06.619Z,60.92
2018-09-10T07:49:33.750Z,61.43
2018-09-10T07:52:00.857Z,61.01
2018-09-10T07:54:27.967Z,60.88
2018-09-10T07:56:55.051Z,60.92
2018-09-10T07:59:22.031Z,61.88
2018-09-10T08:01:49.123Z,61.26
2018-09-10T08:04:16.241Z,61.06
2018-09-10T08:06:43.426Z,61.89
2018-09-10T08:09:11.253Z,61.21
2018-09-10T08:11:38.308Z,61.42
2018-09-10T08:14:05.318Z,61.29
2018-09-10T08:16:32.331Z,61.31
2018-09-10T08:19:00.192Z,61.92
2018-09-10T08:21:27.141Z,61.80
2018-09-10T08:23:54.274Z,61.34
2018-09-10T08:26:21.225Z,61.36
2018-09-10T08:28:48.246Z,61.94
2018-09-10T08:31:15.185Z,61.52
2018-09-10T08:33:42.186Z,61.32
2018-09-10T08:36:09.140Z,62.01
2018-09-10T08:38:36.076Z,62.21
2018-09-10T08:41:03.047Z,61.59
2018-09-10T08:43:30.092Z,61.67
2018-09-10T08:45:57.093Z,61.59
2018-09-10T08:48:24.101Z,61.28
2018-09-10T08:50:51.025Z,61.41
2018-09-10T08:53:18.018Z,62.20
2018-09-10T08:55:45.162Z,61.96
2018-09-10T08:58:12.034Z,61.50
2018-09-10T09:00:38.987Z,61.52
2018-09-10T09:03:05.929Z,61.97
2018-09-10T09:05:32.902Z,61.70
2018-09-10T09:07:59.961Z,61.90
2018-09-10T09:10:26.862Z,60.44
2018-09-10T09:12:53.822Z,59.06
2018-09-10T09:15:20.706Z,59.55
2018-09-10T09:17:47.687Z,59.65
2018-09-10T09:20:14.633Z,59.81
2018-09-10T09:22:41.674Z,58.97
2018-09-10T09:25:08.724Z,60.02
2018-09-10T09:27:35.710Z,60.16
2018-09-10T09:30:02.772Z,58.56
2018-09-10T09:32:29.749Z,58.27
2018-09-10T09:34:57.850Z,57.77
2018-09-10T09:37:30.102Z,57.90
2018-09-10T09:40:02.390Z,58.79
2018-09-10T09:42:34.772Z,58.34
2018-09-10T09:45:07.073Z,57.50
2018-09-10T09:47:34.140Z,58.41
2018-09-10T09:50:01.216Z,57.65
2018-09-10T09:52:28.440Z,57.83
2018-09-10T09:54:55.555Z,58.13
2018-09-10T09:57:22.942Z,57.81
2018-09-10T09:59:49.972Z,58.62
2018-09-10T10:02:22.354Z,57.48
2018-09-10T10:04:49.520Z,58.16
2018-09-10T10:07:16.850Z,57.83
2018-09-10T10:09:43.825Z,56.44
2018-09-10T10:12:10.895Z,57.19
2018-09-10T10:14:37.914Z,55.92
2018-09-10T10:17:05.077Z,55.70
2018-09-10T10:19:32.152Z,55.18
2018-09-10T10:21:59.283Z,55.38
2018-09-10T10:24:26.280Z,54.34
2018-09-10T10:26:53.257Z,56.54
2018-09-10T10:29:20.207Z,57.38
2018-09-10T10:31:47.146Z,57.46
2018-09-10T10:34:14.430Z,57.27
2018-09-10T10:36:41.493Z,58.09
2018-09-10T10:39:09.116Z,58.85
2018-09-10T10:41:36.201Z,58.38
2018-09-10T10:44:03.119Z,58.70
2018-09-10T10:46:30.362Z,59.04
2018-09-10T10:48:57.350Z,58.76
2018-09-10T10:51:24.387Z,59.66
2018-09-10T10:53:51.396Z,59.32
2018-09-10T10:56:18.323Z,59.09
2018-09-10T10:58:45.309Z,59.12
2018-09-10T11:01:12.352Z,58.95
2018-09-10T11:03:39.409Z,58.86
2018-09-10T11:06:06.482Z,58.98
2018-09-10T11:08:33.438Z,59.57
2018-09-10T11:11:00.525Z,59.02
2018-09-10T11:13:27.495Z,58.92
2018-09-10T11:15:54.437Z,59.66
2018-09-10T11:18:21.465Z,59.54
2018-09-10T11:20:48.588Z,59.75
2018-09-10T11:23:15.543Z,59.42
2018-09-10T11:25:42.485Z,59.81
2018-09-10T11:28:09.454Z,60.04
2018-09-10T11:30:36.459Z,60.07
2018-09-10T11:33:03.508Z,59.75
2018-09-10T11:35:30.467Z,59.69
2018-09-10T11:37:57.456Z,60.45
2018-09-10T11:40:24.396Z,60.27
2018-09-10T11:42:51.334Z,60.69
2018-09-10T11:45:18.418Z,59.80
2018-09-10T11:47:45.405Z,60.02
2018-09-10T11:50:13.187Z,60.31
2018-09-10T11:52:40.116Z,60.19
2018-09-10T11:55:07.137Z,60.54
2018-09-10T11:57:34.049Z,59.83
2018-09-10T12:00:00.948Z,60.02
2018-09-10T12:02:27.943Z,59.96
2018-09-10T12:04:54.963Z,59.77
2018-09-10T12:07:21.870Z,60.04
2018-09-10T12:09:48.762Z,59.80
2018-09-10T12:12:15.705Z,60.45
2018-09-10T12:14:42.630Z,60.78
2018-09-10T12:17:09.603Z,60.37
2018-09-10T12:19:36.680Z,60.20
2018-09-10T12:22:03.670Z,60.24
2018-09-10T12:24:30.755Z,59.75
2018-09-10T12:26:57.689Z,59.89
2018-09-10T12:29:24.613Z,60.37
2018-09-10T12:31:51.620Z,59.87
2018-09-10T12:34:18.530Z,59.86
2018-09-10T12:36:45.440Z,59.83
2018-09-10T12:39:12.682Z,60.62
2018-09-10T12:41:39.863Z,59.85
2018-09-10T12:44:07.294Z,60.56
2018-09-10T12:46:34.289Z,59.59
2018-09-10T12:49:01.125Z,60.40
2018-09-10T12:51:28.017Z,60.38
2018-09-10T12:53:54.977Z,60.50
2018-09-10T12:56:21.938Z,59.96
2018-09-10T12:58:49.007Z,60.40
2018-09-10T13:01:15.880Z,60.73
2018-09-10T13:03:42.906Z,60.51
2018-09-10T13:06:09.872Z,60.10
2018-09-10T13:08:36.818Z,59.93
2018-09-10T13:11:03.730Z,60.45
2018-09-10T13:13:30.635Z,60.19
2018-09-10T13:15:57.545Z,60.02
2018-09-10T13:18:24.469Z,60.11
2018-09-10T13:20:51.370Z,60.51
2018-09-10T13:23:18.315Z,60.64
2018-09-10T13:25:45.225Z,60.71
2018-09-10T13:28:12.138Z,59.83
2018-09-10T13:30:39.071Z,60.63
2018-09-10T13:33:05.963Z,60.12
2018-09-10T13:35:32.857Z,59.77
2018-09-10T13:37:59.768Z,60.44
2018-09-10T13:40:26.670Z,59.96
2018-09-10T13:42:53.587Z,60.62
2018-09-10T13:45:20.490Z,59.78
2018-09-10T13:47:47.430Z,60.77
2018-09-10T13:50:14.348Z,60.63
2018-09-10T13:52:41.255Z,60.70
2018-09-10T13:55:14.414Z,59.91
2018-09-10T13:57:41.415Z,60.49
2018-09-10T14:00:08.342Z,60.55
2018-09-10T14:02:35.911Z,60.81
2018-09-10T14:05:02.882Z,60.69
2018-09-10T14:07:29.814Z,60.06
2018-09-10T14:09:56.734Z,60.07
2018-09-10T14:12:23.690Z,60.56
2018-09-10T14:14:50.600Z,60.39
2018-09-10T14:17:17.582Z,61.17
2018-09-10T14:19:44.491Z,60.44
2018-09-10T14:22:11.421Z,60.45
2018-09-10T14:24:38.374Z,60.92
2018-09-10T14:27:05.356Z,61.09
2018-09-10T14:29:32.284Z,60.78
2018-09-10T14:31:59.265Z,60.68
2018-09-10T14:34:26.183Z,60.94
2018-09-10T14:36:53.158Z,60.96
2018-09-10T14:39:20.085Z,60.85
2018-09-10T14:41:47.019Z,60.41
2018-09-10T14:44:13.999Z,60.31
2018-09-10T14:46:40.912Z,60.78
2018-09-10T14:49:07.853Z,60.56
2018-09-10T14:51:34.922Z,61.01
2018-09-10T14:54:01.838Z,60.19
2018-09-10T14:56:28.826Z,59.90
2018-09-10T14:58:55.712Z,60.12
2018-09-10T15:01:22.650Z,60.29
2018-09-10T15:03:49.561Z,60.23
2018-09-10T15:06:16.501Z,59.40
2018-09-10T15:08:43.413Z,58.69
2018-09-10T15:11:10.620Z,59.06
2018-09-10T15:13:37.523Z,58.20
2018-09-10T15:16:04.439Z,58.38
2018-09-10T15:18:31.511Z,57.96
2018-09-10T15:20:58.309Z,57.72
2018-09-10T15:23:25.267Z,57.64
2018-09-10T15:25:52.189Z,57.43
2018-09-10T15:28:19.101Z,56.77
2018-09-10T15:30:46.038Z,57.70
2018-09-10T15:33:12.932Z,56.37
2018-09-10T15:35:39.834Z,56.99
2018-09-10T15:38:06.742Z,57.08
2018-09-10T15:40:33.719Z,56.35
2018-09-10T15:43:00.606Z,56.14
2018-09-10T15:45:27.514Z,57.00
2018-09-10T15:47:54.412Z,55.94
2018-09-10T15:50:21.306Z,56.49
2018-09-10T15:52:48.220Z,55.70
2018-09-10T15:55:15.149Z,55.39
2018-09-10T15:57:42.070Z,56.25
2018-09-10T16:00:09.106Z,56.19
2018-09-10T16:02:35.966Z,55.87
2018-09-10T16:05:02.952Z,55.23
2018-09-10T16:07:29.845Z,55.68
2018-09-10T16:09:56.746Z,55.57
2018-09-10T16:12:23.654Z,55.34
2018-09-10T16:14:50.569Z,55.55
2018-09-10T16:17:17.501Z,54.92
2018-09-10T16:19:44.418Z,54.96
2018-09-10T16:22:11.309Z,55.35
2018-09-10T16:24:38.213Z,55.54
2018-09-10T16:27:05.129Z,55.38
2018-09-10T16:29:32.046Z,54.90
2018-09-10T16:31:58.958Z,55.37
2018-09-10T16:34:25.861Z,55.41
2018-09-10T16:36:52.871Z,55.12
2018-09-10T16:39:19.783Z,54.44
2018-09-10T16:41:46.688Z,55.11
2018-09-10T16:44:13.627Z,55.34
2018-09-10T16:46:40.525Z,55.05
2018-09-10T16:49:07.424Z,54.96
2018-09-10T16:51:34.454Z,56.39
2018-09-10T16:54:01.617Z,55.77
2018-09-10T16:56:28.488Z,56.51
2018-09-10T16:58:55.413Z,56.24
2018-09-10T17:01:22.318Z,55.67
2018-09-10T17:03:49.204Z,56.14
2018-09-10T17:06:16.113Z,55.74
2018-09-10T17:08:43.037Z,55.91
2018-09-10T17:11:09.937Z,55.83
2018-09-10T17:13:36.820Z,56.34
2018-09-10T17:16:03.716Z,55.68
2018-09-10T17:18:30.608Z,55.86
2018-09-10T17:20:57.598Z,55.44
2018-09-10T17:23:24.501Z,56.64
2018-09-10T17:25:52.895Z,56.36
2018-09-10T17:28:20.362Z,55.84
2018-09-10T17:30:47.281Z,56.71
2018-09-10T17:33:14.176Z,56.36
2018-09-10T17:35:41.069Z,56.41
2018-09-10T17:38:07.995Z,55.95
2018-09-10T17:40:34.955Z,56.40
2018-09-10T17:43:01.841Z,56.11
2018-09-10T17:45:28.724Z,56.46
2018-09-10T17:47:55.790Z,56.87
2018-09-10T17:50:22.736Z,56.55
2018-09-10T17:52:49.628Z,56.34
2018-09-10T17:55:16.555Z,56.71
2018-09-10T17:57:43.436Z,56.59
2018-09-10T18:00:10.364Z,57.10
2018-09-10T18:02:37.452Z,56.54
2018-09-10T18:05:04.343Z,56.26
2018-09-10T18:07:31.341Z,56.86
2018-09-10T18:09:58.309Z,56.71
2018-09-10T18:12:25.264Z,57.11
2018-09-10T18:14:52.626Z,56.76
2018-09-10T18:17:19.512Z,56.86
2018-09-10T18:19:46.408Z,56.97
2018-09-10T18:22:13.301Z,56.54
2018-09-10T18:24:40.200Z,56.80
2018-09-10T18:27:07.104Z,56.55
2018-09-10T18:29:34.020Z,56.69
2018-09-10T18:32:00.950Z,57.17
2018-09-10T18:34:27.845Z,57.23
2018-09-10T18:36:54.745Z,56.53
2018-09-10T18:39:21.646Z,57.63
2018-09-10T18:41:48.548Z,57.36
2018-09-10T18:44:15.441Z,57.76
2018-09-10T18:46:42.361Z,57.99
2018-09-10T18:49:09.271Z,57.91
2018-09-10T18:51:36.209Z,58.06
2018-09-10T18:54:03.126Z,57.60
2018-09-10T18:56:30.030Z,57.93
2018-09-10T18:58:56.937Z,58.01
2018-09-10T19:01:24.059Z,57.18
2018-09-10T19:03:50.786Z,58.10
2018-09-10T19:06:17.732Z,57.91
2018-09-10T19:08:44.702Z,58.26
2018-09-10T19:11:11.656Z,58.38
2018-09-10T19:13:38.656Z,58.07
2018-09-10T19:16:05.705Z,57.99
2018-09-10T19:18:37.784Z,58.60
2018-09-10T19:21:04.844Z,58.42
2018-09-10T19:23:31.880Z,58.84
2018-09-10T19:25:58.867Z,58.28
2018-09-10T19:28:26.177Z,59.21
2018-09-10T19:30:53.145Z,58.36
2018-09-10T19:33:20.381Z,58.53
2018-09-10T19:35:47.328Z,59.31
2018-09-10T19:38:14.401Z,59.18
2018-09-10T19:40:41.481Z,59.35
2018-09-10T19:43:08.459Z,59.17
2018-09-10T19:45:35.593Z,59.28
2018-09-10T19:48:02.622Z,59.62
2018-09-10T19:50:29.576Z,58.94
2018-09-10T19:52:56.615Z,58.91
2018-09-10T19:55:23.608Z,59.51
2018-09-10T19:57:50.594Z,58.71
2018-09-10T20:00:17.577Z,59.59
2018-09-10T20:02:44.594Z,58.99
2018-09-10T20:05:11.571Z,59.64
2018-09-10T20:07:38.522Z,59.49
2018-09-10T20:10:05.496Z,59.73
2018-09-10T20:12:32.489Z,59.60
2018-09-10T20:14:59.509Z,59.16
2018-09-10T20:17:26.493Z,59.61
2018-09-10T20:19:53.457Z,58.99
2018-09-10T20:22:20.453Z,59.58
2018-09-10T20:24:47.545Z,59.45
2018-09-10T20:27:14.842Z,59.01
2018-09-10T20:29:41.778Z,58.99
2018-09-10T20:32:09.259Z,59.39
2018-09-10T20:34:36.211Z,59.48
2018-09-10T20:37:03.287Z,59.91
2018-09-10T20:39:30.244Z,60.13
2018-09-10T20:41:57.130Z,59.42
2018-09-10T20:44:24.066Z,59.66
2018-09-10T20:46:51.027Z,59.95
2018-09-10T20:49:17.957Z,59.44
2018-09-10T20:51:44.952Z,59.41
2018-09-10T20:54:11.882Z,60.01
2018-09-10T20:56:38.795Z,60.17
2018-09-10T20:59:05.743Z,60.44
2018-09-10T21:01:32.733Z,59.67
2018-09-10T21:03:59.719Z,60.42
2018-09-10T21:06:26.677Z,60.26
2018-09-10T21:08:53.607Z,59.43
2018-09-10T21:11:20.575Z,59.88
2018-09-10T21:13:47.556Z,59.58
2018-09-10T21:16:14.513Z,59.89
2018-09-10T21:18:41.432Z,60.13
2018-09-10T21:21:08.354Z,60.08
2018-09-10T21:23:35.403Z,60.53
2018-09-10T21:26:02.331Z,59.41
2018-09-10T21:28:29.288Z,60.21
2018-09-10T21:30:56.247Z,59.66
2018-09-10T21:33:23.235Z,60.34
2018-09-10T21:35:50.194Z,59.78
2018-09-10T21:38:17.153Z,59.76
2018-09-10T21:40:44.080Z,60.14
2018-09-10T21:43:11.118Z,59.83
2018-09-10T21:45:38.046Z,60.00
2018-09-10T21:48:04.980Z,60.17
2018-09-10T21:50:31.932Z,60.20
2018-09-10T21:52:58.898Z,59.98
2018-09-10T21:55:25.850Z,60.76
2018-09-10T21:57:52.816Z,60.01
2018-09-10T22:00:19.765Z,60.48
2018-09-10T22:02:46.705Z,60.48
2018-09-10T22:05:13.663Z,60.09
2018-09-10T22:07:40.621Z,60.64
2018-09-10T22:10:07.803Z,60.06
2018-09-10T22:12:34.777Z,60.63
2018-09-10T22:15:01.717Z,59.98
2018-09-10T22:17:28.680Z,60.63
2018-09-10T22:19:55.739Z,60.22
2018-09-10T22:22:22.702Z,60.00
2018-09-10T22:24:49.632Z,60.10
2018-09-10T22:27:16.613Z,60.65
2018-09-10T22:29:43.677Z,60.72
2018-09-10T22:32:10.734Z,60.62
2018-09-10T22:34:37.694Z,60.76
2018-09-10T22:37:04.717Z,61.02
2018-09-10T22:39:31.659Z,60.84
2018-09-10T22:41:58.580Z,60.99
2018-09-10T22:44:28.151Z,60.66
2018-09-10T22:46:55.164Z,60.90
2018-09-10T22:49:22.119Z,60.15
2018-09-10T22:51:49.069Z,60.34
2018-09-10T22:54:16.030Z,61.04
2018-09-10T22:56:42.946Z,60.81
2018-09-10T22:59:09.884Z,60.49
2018-09-10T23:01:36.812Z,60.33
2018-09-10T23:04:03.715Z,60.23
2018-09-10T23:06:30.604Z,60.87
2018-09-10T23:08:57.513Z,61.31
2018-09-10T23:11:24.443Z,61.07
2018-09-10T23:13:51.457Z,61.14
2018-09-10T23:16:18.403Z,60.98
2018-09-10T23:18:45.339Z,60.97
2018-09-10T23:21:12.329Z,60.33
2018-09-10T23:23:39.271Z,60.50
2018-09-10T23:26:06.214Z,61.19
2018-09-10T23:28:33.198Z,61.31
2018-09-10T23:31:00.132Z,61.12
2018-09-10T23:33:27.111Z,61.15
2018-09-10T23:35:54.020Z,61.31
2018-09-10T23:38:20.969Z,61.31
2018-09-10T23:40:47.894Z,60.44
2018-09-10T23:43:14.902Z,60.74
2018-09-10T23:45:41.945Z,61.07
2018-09-10T23:48:08.909Z,60.77
2018-09-10T23:50:35.820Z,60.73
2018-09-10T23:53:03.033Z,60.65
2018-09-10T23:55:30.004Z,61.12
2018-09-10T23:57:56.927Z,61.12
